Aérodrome :
LOGIN :

S'inscrire | Disclaimer

   EN    FR    IT 

 










Légende :    VFR   VFR Marginal   IFR   IFR Intensif   IFR Très Intensif
Visi : 
Plafond : 
>= 8 km
>= 3000ft
5 à 8 km
1000 à 3000 ft
1500m à 5 km
500 à 1000 ft
800 à 1500m
200 à 500 ft
< 800m
< 200 ft
Symboles :   Orages  Brouillard  Fortes neiges  Fortes précipitations  Vent > 20 kt
SIGMETs :   Divers  Orages  Givrage  Turbulence  Onde Orograph.  Cendres Volcan.






- Altitude de l'aérodrome : 40 ft
- Code IATA : RMI


LIPR - Federico Fellini Int. Rimini

DERNIER METAR :
  • 221550Z 14003KT CAVOK 06/01 Q1031

METARs EXPIRÉS :
  • 221520Z 09003KT CAVOK 07/02 Q1032
  • 221450Z 04004KT CAVOK 07/02 Q1032
  • 221420Z 04004KT 010V080 CAVOK 07/02 Q1032
  • 221350Z 04005KT CAVOK 07/01 Q1032
  • 221320Z 04003KT 350V070 CAVOK 07/01 Q1033

TAF TAF LIPR
Valide du 22 à 15h jusqu'au 23 à 00h UTC


221400Z 2215/2224 VRB05KT CAVOK
TEMPO 2221/2224 3000 BR



MET'MAP, la Météo Aéronautique d'un coup d'oeil ! - Copyright ORBIFLY Décembre 2007 - Disclaimer

ORBIFLY MET'MAP TEAM :

Programmation & Développement : Alexandra Zaïnal
Sur une idée originale de : Baudouin d'Aumeries
Assistance à la programmation : Marc-Olivier Méhu
Soutien technique & logistique : Manuel Goepfert

Contact : metmap@orbifly.com




SOURCES & CREDITS :

   NOAA